Station info - map view · info · telemetry · weather · raw · status · beacons · messages · bulletins · browse · moving · my account
Callsign, ship name or locator: Clear       
It is possible to search using wildcards (*?) after a prefix. Example: OH*
APRS station K0RLC-9 - show graphs
Map loading...
Mic-E message: En route
Location: 45°21.13' N 122°50.92' W - locator CN85NI84DM - show map - static map
0.5 miles Southwest bearing 234° from Sherwood, Washington County, Oregon, United States [?]
5.1 miles Northwest bearing 315° from Wilsonville, Clackamas County, Oregon, United States
14.5 miles Southwest bearing 215° from Portland, Multnomah County, Oregon, United States
21.8 miles Southwest bearing 205° from Vancouver, Clark County, Washington, United States
Last position: 2018-07-01 20:44:01 EDT (18d 7h55m ago)
2018-07-01 17:44:01 PDT local time at Sherwood, United States [?]
Altitude: 174 ft
Course: 59°
Speed: 12 MPH
Device: Yaesu: FTM-400DR (rig)
Last path: K0RLC-9>TU2QQS via WIDE1-1,qAR,BALDPK (good)
Positions stored: 14095
Stations near current position of K0RLC-9 - show more
callsign distance last heard - EDT      callsign distance last heard - EDT
KG7CSU0.5 miles 277°2018-07-17 22:12:35 KG7CSU-40.5 miles 278°2018-07-08 19:03:19
KG7CSU-30.5 miles 278°2018-07-14 00:23:02 KC5EQX-70.6 miles 130°2018-07-19 23:13:08
DW20580.6 miles 93°2018-07-20 04:35:08 N7LGK1.0 miles 340°2018-07-20 04:10:19
N7LGK B1.0 miles 340°2018-07-12 18:56:11 N7LGK-B1.0 miles 340°2018-07-12 18:56:21
N7LGK-P1.0 miles 339°2018-07-12 22:44:59 N7LGK-121.0 miles 339°2018-07-12 01:14:34
EW94301.3 miles 98°2018-07-20 04:35:14 WB7DZG A1.5 miles 154°2018-07-20 04:22:31
WB7DZG AD1.5 miles 154°2018-07-20 04:22:31 WB7DZG B1.5 miles 154°2018-07-20 04:22:31
WB7DZG C1.5 miles 154°2018-07-20 04:22:31 WB7DZG-C1.5 miles 154°2018-07-20 04:22:17
WB7DZG-B1.5 miles 154°2018-07-20 04:22:17 WB7DZG-A1.5 miles 154°2018-07-20 04:22:16
KB7OK-102.4 miles 48°2018-07-15 13:30:49 DW63932.8 miles 79°2018-07-15 12:27:41
Stations which heard K0RLC-9 directly on radio –
callsign pkts first heard - EDT last heard longest (tx => rx) longest at - EDT
LARCH 24 2018-07-01 19:25:59 2018-07-01 20:33:27 CN85OJ > CN85UR 32.8 miles 45° 2018-07-01 20:33:27
BULLMT 1 2018-07-01 20:17:00 2018-07-01 20:17:00 CN85QM > CN85OJ 11.9 miles 229° 2018-07-01 20:17:00
CLEELM 3 2018-07-01 14:58:05 2018-07-01 15:02:46 CN97PF > CN97ME 13.4 miles 260° 2018-07-01 14:58:05
GRZZLY 2 2018-07-01 17:40:09 2018-07-01 18:22:29 CN95PW > CN94MK 104.0 miles 187° 2018-07-01 17:40:09
JUNIPR 7 2018-07-01 17:47:13 2018-07-01 18:48:39 CN95LP > CN95PR 17.5 miles 69° 2018-07-01 18:48:39
PATSY 1 2018-07-01 18:36:27 2018-07-01 18:36:27 CN95NQ > CN84EO 155.4 miles 243° 2018-07-01 18:36:27
MISION 49 2018-07-01 13:50:35 2018-07-01 17:25:56 CN96RC > CN97TG 81.8 miles 5° 2018-07-01 17:25:56
YAKIMA 26 2018-07-01 15:30:41 2018-07-01 17:08:11 CN96UH > CN96TP 22.6 miles 351° 2018-07-01 17:08:11
BADGER 1 2018-07-01 14:49:56 2018-07-01 14:49:56 CN97QH > CN97WO 30.1 miles 54° 2018-07-01 14:49:56
WW7CH-12 1 2018-07-01 15:44:44 2018-07-01 15:44:44 CN96SQ > CN96DS 60.3 miles 277° 2018-07-01 15:44:44
IDIOTV 15 2018-07-01 19:43:57 2018-07-01 20:44:02 CN85VN > CN85HP 60.5 miles 276° 2018-07-01 19:43:57
LOKOUT 2 2018-07-01 19:30:43 2018-07-01 19:47:39 CN85UN > CN85WT 19.2 miles 22° 2018-07-01 19:47:39
KITTAS 27 2018-07-01 14:59:50 2018-07-01 15:33:35 CN97PF > CN97TA 20.0 miles 138° 2018-07-01 14:59:50
W7SRA 1 2018-07-01 20:26:13 2018-07-01 20:26:13 CN85PK > CN84KU 44.7 miles 204° 2018-07-01 20:26:13
BALDPK 11 2018-07-01 19:38:06 2018-07-01 20:44:01 CN85XO > CN85LJ 50.3 miles 255° 2018-07-01 19:38:06
NA7Q-9 12 2018-07-01 20:14:21 2018-07-01 20:24:59 CN85PK > CN85QL 5.2 miles 58° 2018-07-01 20:24:59
BEAVRT 5 2018-07-01 20:17:16 2018-07-01 20:32:51 CN85QM > CN85OK 10.5 miles 235° 2018-07-01 20:17:16
N7AWM 29 2018-07-01 18:43:58 2018-07-01 19:14:18 CN95FR > CN95JP 17.0 miles 102° 2018-07-01 19:14:18
SADDLE 6 2018-07-01 19:52:42 2018-07-01 20:44:13 CN85TN > CN85HN 49.2 miles 271° 2018-07-01 19:52:42
W7DG-5 5 2018-07-01 20:06:00 2018-07-01 20:09:25 CN85RN > CN86ME 48.9 miles 335° 2018-07-01 20:06:00
KK7DS-1 2 2018-07-01 19:28:57 2018-07-01 20:11:14 CN95BQ > CN85RL 35.0 miles 245° 2018-07-01 19:28:57
K7RMO-1 18 2018-07-01 19:52:44 2018-07-01 20:44:03 CN85TN > CN85MI 30.1 miles 242° 2018-07-01 19:52:44
TROUT 1 2018-07-01 18:26:37 2018-07-01 18:26:37 CN95OS > CN95FX 38.1 miles 295° 2018-07-01 18:26:37
WA7SUP 1 2018-07-01 20:42:51 2018-07-01 20:42:51 CN85NI > CN85MH 4.7 miles 242° 2018-07-01 20:42:51
NPLNS 12 2018-07-01 20:13:42 2018-07-01 20:42:16 CN85OI > CN85MP 20.8 miles 336° 2018-07-01 20:40:35

Only position packets which were originated by the station are shown here. The range statistics show some extra long hops, because some digipeaters do not correctly add themselves to the digipeater path. Please check the raw packets.
About this site
This page shows real-time information collected from the Automatic Position Reporting System Internet network (APRS-IS). APRS is used by amateur (ham) radio operators to transmit real-time position information, weather data, telemetry and messages over the radio. A vehicle equipped with a GPS receiver, a VHF transmitter or HF transceiver and a small computer device called a tracker transmits it's location, speed and course in a small data packet, which is then received by a nearby iGate receiving site which forwards the packet on the Internet. Systems connected to the Internet can send information on the APRS-IS without a radio transmitter, or collect and display information transmitted anywhere in the world.
FAQ · Blog · Discussion group · Linking to aprs.fi · AIS sites · Service status · Database statistics · Advertising on aprs.fi · Technical details · API · Change log · Planned changes · Credits and thanks · Terms Of Service · iPhone/iPad APRS